createdAt,value
2022-08-24T00:00:01.658Z,20.4
2022-08-24T00:01:01.231Z,20.3
2022-08-24T00:02:02.016Z,20.3
2022-08-24T00:03:01.668Z,20.3
2022-08-24T00:04:02.036Z,20.3
2022-08-24T00:05:01.541Z,20.3
2022-08-24T00:06:01.128Z,20.3
2022-08-24T00:07:01.721Z,20.2
2022-08-24T00:08:01.307Z,20.2
2022-08-24T00:09:01.877Z,20.2
2022-08-24T00:10:01.457Z,20.2
2022-08-24T00:11:02.038Z,20.1
2022-08-24T00:12:01.629Z,20.1
2022-08-24T00:13:01.202Z,20.1
2022-08-24T00:14:01.776Z,20
2022-08-24T00:15:01.349Z,20
2022-08-24T00:16:01.935Z,20
2022-08-24T00:17:01.597Z,20.1
2022-08-24T00:18:02.223Z,20.1
2022-08-24T00:19:01.904Z,19.8
2022-08-24T00:20:01.303Z,19.8
2022-08-24T00:21:01.878Z,19.8
2022-08-24T00:22:01.458Z,19.9
2022-08-24T00:23:02.032Z,20
2022-08-24T00:24:03.034Z,20
2022-08-24T00:25:01.767Z,20
2022-08-24T00:26:01.340Z,20
2022-08-24T00:27:01.930Z,20.1
2022-08-24T00:28:02.249Z,20.1
2022-08-24T00:29:05.494Z,20.1
2022-08-24T00:30:01.204Z,20.1
2022-08-24T00:31:01.779Z,20.1
2022-08-24T00:32:01.393Z,20.1
2022-08-24T00:33:01.939Z,20
2022-08-24T00:34:01.533Z,20
2022-08-24T00:35:02.099Z,20
2022-08-24T00:36:01.676Z,20
2022-08-24T00:37:01.346Z,20
2022-08-24T00:38:02.134Z,19.9
2022-08-24T00:39:01.585Z,19.9
2022-08-24T00:40:01.192Z,19.9
2022-08-24T00:41:01.775Z,19.9
2022-08-24T00:42:01.349Z,19.8
2022-08-24T00:43:01.940Z,19.7
2022-08-24T00:44:01.533Z,19.7
2022-08-24T00:45:02.096Z,19.7
2022-08-24T00:46:01.769Z,19.7
2022-08-24T00:47:01.342Z,19.6
2022-08-24T00:48:02.071Z,19.7
2022-08-24T00:49:01.598Z,19.7
2022-08-24T00:50:01.146Z,19.7
2022-08-24T00:51:01.721Z,19.7
2022-08-24T00:52:01.295Z,19.7
2022-08-24T00:53:01.830Z,19.7
2022-08-24T00:54:01.421Z,19.7
2022-08-24T00:55:01.979Z,19.7
2022-08-24T00:56:01.580Z,19.7
2022-08-24T00:57:01.147Z,19.7
2022-08-24T00:58:01.778Z,19.7
2022-08-24T00:59:01.388Z,19.7
2022-08-24T01:00:01.949Z,19.7
2022-08-24T01:01:01.615Z,19.7
2022-08-24T01:02:02.207Z,19.7
2022-08-24T01:03:01.632Z,19.7
2022-08-24T01:04:01.222Z,19.7
2022-08-24T01:05:01.794Z,19.7
2022-08-24T01:06:01.368Z,19.7
2022-08-24T01:07:01.942Z,19.6
2022-08-24T01:08:01.592Z,19.6
2022-08-24T01:09:02.116Z,19.6
2022-08-24T01:10:01.693Z,19.6
2022-08-24T01:11:01.266Z,19.5
2022-08-24T01:12:01.854Z,19.5
2022-08-24T01:13:01.634Z,19.5
2022-08-24T01:14:02.017Z,19.5
2022-08-24T01:15:01.596Z,19.6
2022-08-24T01:16:01.223Z,19.6
2022-08-24T01:17:01.765Z,19.6
2022-08-24T01:18:01.364Z,19.5
2022-08-24T01:19:01.930Z,19.5
2022-08-24T01:20:01.601Z,19.5
2022-08-24T01:21:02.080Z,19.5
2022-08-24T01:22:01.668Z,19.6
2022-08-24T01:23:01.240Z,19.5
2022-08-24T01:24:01.814Z,19.5
2022-08-24T01:25:01.392Z,19.5
2022-08-24T01:26:01.965Z,19.5
2022-08-24T01:27:01.751Z,19.4
2022-08-24T01:28:02.695Z,19.4
2022-08-24T01:29:01.560Z,19.4
2022-08-24T01:30:01.434Z,19.3
2022-08-24T01:31:02.025Z,19.3
2022-08-24T01:32:01.617Z,19.3
2022-08-24T01:33:01.187Z,19.3
2022-08-24T01:34:01.777Z,19.3
2022-08-24T01:35:01.313Z,19.3
2022-08-24T01:36:01.885Z,19.3
2022-08-24T01:37:01.461Z,19.2
2022-08-24T01:38:02.237Z,19.2
2022-08-24T01:39:01.711Z,19.1
2022-08-24T01:40:01.337Z,19
2022-08-24T01:41:01.868Z,19
2022-08-24T01:42:01.490Z,18.9
2022-08-24T01:43:02.029Z,19
2022-08-24T01:44:01.621Z,18.9
2022-08-24T01:45:01.178Z,18.9
2022-08-24T01:46:01.754Z,18.8
2022-08-24T01:47:01.377Z,18.7
2022-08-24T01:48:01.988Z,18.8
2022-08-24T01:49:01.585Z,18.8
2022-08-24T01:50:02.164Z,18.8
2022-08-24T01:51:01.742Z,18.8
2022-08-24T01:52:01.314Z,18.7
2022-08-24T01:53:05.174Z,18.7
2022-08-24T01:54:01.425Z,18.7
2022-08-24T01:55:02.014Z,18.8
2022-08-24T01:56:01.590Z,18.7
2022-08-24T01:57:01.167Z,18.7
2022-08-24T01:58:01.743Z,18.7
2022-08-24T01:59:01.314Z,18.7
2022-08-24T02:00:01.904Z,18.6
2022-08-24T02:01:01.483Z,18.7
2022-08-24T02:02:02.071Z,18.7
2022-08-24T02:03:01.908Z,18.7
2022-08-24T02:04:01.236Z,18.6
2022-08-24T02:05:01.821Z,18.7
2022-08-24T02:06:01.393Z,18.7
2022-08-24T02:07:01.967Z,18.8
2022-08-24T02:08:01.501Z,18.7
2022-08-24T02:09:02.077Z,18.7
2022-08-24T02:10:01.667Z,18.7
2022-08-24T02:11:01.256Z,18.8
2022-08-24T02:12:01.815Z,18.8
2022-08-24T02:13:01.544Z,18.7
2022-08-24T02:14:01.975Z,18.7
2022-08-24T02:15:01.568Z,18.7
2022-08-24T02:16:02.200Z,18.7
2022-08-24T02:17:01.803Z,18.7
2022-08-24T02:18:01.359Z,18.7
2022-08-24T02:19:01.933Z,18.7
2022-08-24T02:20:01.520Z,18.7
2022-08-24T02:21:02.108Z,18.7
2022-08-24T02:22:01.683Z,18.7
2022-08-24T02:23:01.380Z,18.7
2022-08-24T02:24:01.844Z,18.5
2022-08-24T02:25:01.418Z,18.5
2022-08-24T02:26:02.007Z,18.5
2022-08-24T02:27:01.601Z,18.5
2022-08-24T02:28:01.164Z,18.4
2022-08-24T02:29:03.693Z,18.4
2022-08-24T02:30:01.273Z,18.4
2022-08-24T02:31:01.908Z,18.4
2022-08-24T02:32:01.496Z,18.4
2022-08-24T02:33:02.274Z,18.4
2022-08-24T02:34:01.721Z,18.3
2022-08-24T02:35:01.294Z,18.3
2022-08-24T02:36:01.891Z,18.3
2022-08-24T02:37:01.463Z,18.3
2022-08-24T02:38:02.037Z,18.3
2022-08-24T02:39:01.610Z,18.3
2022-08-24T02:40:01.216Z,18.2
2022-08-24T02:41:01.775Z,18.2
2022-08-24T02:42:01.392Z,18.2
2022-08-24T02:43:02.015Z,18.2
2022-08-24T02:44:01.584Z,18.2
2022-08-24T02:45:02.159Z,18.3
2022-08-24T02:46:01.796Z,18.2
2022-08-24T02:47:01.376Z,18.3
2022-08-24T02:48:01.951Z,18.3
2022-08-24T02:49:03.160Z,18.2
2022-08-24T02:50:02.062Z,18.1
2022-08-24T02:51:01.668Z,18.2
2022-08-24T02:52:01.241Z,18.1
2022-08-24T02:53:01.888Z,18.1
2022-08-24T02:54:01.480Z,18.1
2022-08-24T02:55:02.052Z,18.1
2022-08-24T02:56:01.641Z,18
2022-08-24T02:57:01.225Z,18.1
2022-08-24T02:58:01.783Z,18.1
2022-08-24T02:59:01.355Z,18.1
2022-08-24T03:00:01.928Z,18.1
2022-08-24T03:01:01.558Z,18.1
2022-08-24T03:02:01.733Z,18.1
2022-08-24T03:03:01.447Z,18.1
2022-08-24T03:04:02.125Z,18.2
2022-08-24T03:05:01.700Z,18.1
2022-08-24T03:06:01.273Z,18.2
2022-08-24T03:07:01.870Z,18.2
2022-08-24T03:08:01.511Z,18.2
2022-08-24T03:09:02.050Z,18.2
2022-08-24T03:10:01.627Z,18.1
2022-08-24T03:11:01.199Z,18.1
2022-08-24T03:12:01.771Z,18.1
2022-08-24T03:13:01.539Z,18.1
2022-08-24T03:14:01.920Z,18.1
2022-08-24T03:15:01.495Z,18.1
2022-08-24T03:16:02.136Z,18.1
2022-08-24T03:17:01.719Z,18.1
2022-08-24T03:18:01.307Z,18.1
2022-08-24T03:19:01.893Z,18.1
2022-08-24T03:20:01.533Z,18.1
2022-08-24T03:21:02.095Z,18.1
2022-08-24T03:22:01.669Z,18
2022-08-24T03:23:01.334Z,18
2022-08-24T03:24:01.852Z,18
2022-08-24T03:25:01.428Z,17.9
2022-08-24T03:26:01.999Z,17.9
2022-08-24T03:27:01.569Z,17.9
2022-08-24T03:28:01.606Z,17.9
2022-08-24T03:29:01.755Z,17.9
2022-08-24T03:30:01.343Z,17.9
2022-08-24T03:31:02.017Z,17.9
2022-08-24T03:32:01.567Z,17.9
2022-08-24T03:33:02.285Z,17.9
2022-08-24T03:34:01.932Z,17.9
2022-08-24T03:35:01.387Z,17.9
2022-08-24T03:36:01.974Z,17.8
2022-08-24T03:37:01.546Z,17.8
2022-08-24T03:38:02.121Z,17.9
2022-08-24T03:39:01.694Z,17.9
2022-08-24T03:40:01.301Z,17.9
2022-08-24T03:41:01.866Z,17.9
2022-08-24T03:42:01.436Z,17.8
2022-08-24T03:43:02.151Z,17.8
2022-08-24T03:44:01.659Z,17.8
2022-08-24T03:45:01.251Z,17.9
2022-08-24T03:46:01.899Z,17.8
2022-08-24T03:47:01.457Z,17.8
2022-08-24T03:48:02.029Z,17.8
2022-08-24T03:49:01.604Z,17.8
2022-08-24T03:50:02.197Z,17.8
2022-08-24T03:51:01.595Z,17.8
2022-08-24T03:52:02.169Z,17.8
2022-08-24T03:53:01.864Z,17.8
2022-08-24T03:54:01.395Z,17.8
2022-08-24T03:55:01.987Z,17.8
2022-08-24T03:56:01.576Z,17.8
2022-08-24T03:57:02.110Z,17.8
2022-08-24T03:58:01.684Z,17.9
2022-08-24T03:59:01.256Z,17.9
2022-08-24T04:00:01.847Z,18
2022-08-24T04:01:01.457Z,18
2022-08-24T04:02:02.062Z,18
2022-08-24T04:03:01.695Z,18
2022-08-24T04:04:01.219Z,18.1
2022-08-24T04:05:01.794Z,18.1
2022-08-24T04:06:01.386Z,18.1
2022-08-24T04:07:01.942Z,18.1
2022-08-24T04:08:01.516Z,18.1
2022-08-24T04:09:02.092Z,18.1
2022-08-24T04:10:01.666Z,18.1
2022-08-24T04:11:01.258Z,18.1
2022-08-24T04:12:01.837Z,18.1
2022-08-24T04:13:01.615Z,18
2022-08-24T04:14:02.048Z,17.8
2022-08-24T04:15:01.623Z,17.7
2022-08-24T04:16:01.197Z,17.7
2022-08-24T04:17:01.860Z,17.7
2022-08-24T04:18:01.446Z,17.7
2022-08-24T04:19:02.015Z,17.7
2022-08-24T04:20:01.605Z,17.8
2022-08-24T04:21:02.175Z,17.8
2022-08-24T04:22:01.762Z,17.8
2022-08-24T04:23:01.351Z,17.8
2022-08-24T04:24:01.920Z,17.8
2022-08-24T04:25:01.492Z,17.8
2022-08-24T04:26:01.347Z,17.8
2022-08-24T04:27:01.939Z,17.8
2022-08-24T04:28:01.324Z,17.8
2022-08-24T04:29:01.897Z,17.7
2022-08-24T04:30:01.520Z,17.8
2022-08-24T04:31:02.086Z,17.8
2022-08-24T04:32:01.743Z,17.8
2022-08-24T04:33:01.235Z,17.8
2022-08-24T04:34:01.808Z,17.8
2022-08-24T04:35:01.382Z,17.8
2022-08-24T04:36:01.959Z,17.8
2022-08-24T04:37:01.550Z,17.8
2022-08-24T04:38:02.107Z,17.8
2022-08-24T04:39:01.680Z,17.8
2022-08-24T04:40:01.293Z,17.8
2022-08-24T04:41:01.364Z,17.8
2022-08-24T04:42:02.939Z,17.8
2022-08-24T04:43:01.676Z,17.8
2022-08-24T04:44:01.299Z,17.8
2022-08-24T04:45:01.821Z,17.8
2022-08-24T04:46:01.443Z,17.8
2022-08-24T04:47:02.002Z,17.8
2022-08-24T04:48:01.575Z,17.8
2022-08-24T04:49:02.151Z,17.8
2022-08-24T04:50:01.744Z,17.8
2022-08-24T04:51:01.333Z,17.8
2022-08-24T04:52:01.908Z,17.8
2022-08-24T04:53:01.499Z,18
2022-08-24T04:54:02.072Z,17.9
2022-08-24T04:55:01.647Z,17.9
2022-08-24T04:56:01.222Z,17.8
2022-08-24T04:57:01.814Z,17.7
2022-08-24T04:58:01.404Z,17.7
2022-08-24T04:59:01.974Z,17.6
2022-08-24T05:00:01.548Z,17.7
2022-08-24T05:01:02.141Z,17.8
2022-08-24T05:02:01.845Z,17.9
2022-08-24T05:03:01.384Z,17.9
2022-08-24T05:04:01.954Z,18
2022-08-24T05:05:01.537Z,18
2022-08-24T05:06:02.113Z,18
2022-08-24T05:07:01.709Z,18
2022-08-24T05:08:01.425Z,17.9
2022-08-24T05:09:01.860Z,17.9
2022-08-24T05:10:01.432Z,17.9
2022-08-24T05:11:02.005Z,18
2022-08-24T05:12:01.599Z,18
2022-08-24T05:13:02.213Z,18.1
2022-08-24T05:14:01.858Z,18.1
2022-08-24T05:15:01.403Z,18.2
2022-08-24T05:16:02.030Z,18.2
2022-08-24T05:17:02.109Z,18.3
2022-08-24T05:18:01.554Z,18.3
2022-08-24T05:19:01.813Z,18.3
2022-08-24T05:20:01.395Z,18.5
2022-08-24T05:21:01.969Z,18.5
2022-08-24T05:22:01.546Z,18.6
2022-08-24T05:23:04.463Z,18.6
2022-08-24T05:24:01.688Z,18.8
2022-08-24T05:25:01.260Z,18.8
2022-08-24T05:26:01.832Z,18.8
2022-08-24T05:27:01.409Z,18.9
2022-08-24T05:28:01.996Z,19
2022-08-24T05:29:01.588Z,19.1
2022-08-24T05:30:02.153Z,19.2
2022-08-24T05:31:01.767Z,19.2
2022-08-24T05:32:02.195Z,19.3
2022-08-24T05:33:01.591Z,19.4
2022-08-24T05:34:02.188Z,19.4
2022-08-24T05:35:01.761Z,19.4
2022-08-24T05:36:01.332Z,19.5
2022-08-24T05:37:01.904Z,19.5
2022-08-24T05:38:01.484Z,19.6
2022-08-24T05:39:02.080Z,19.7
2022-08-24T05:40:01.698Z,19.8
2022-08-24T05:41:01.241Z,19.8
2022-08-24T05:42:01.820Z,19.9
2022-08-24T05:43:01.542Z,20
2022-08-24T05:44:02.072Z,20.1
2022-08-24T05:45:01.608Z,20.1
2022-08-24T05:46:02.183Z,20.2
2022-08-24T05:47:01.799Z,20.2
2022-08-24T05:48:01.496Z,20.3
2022-08-24T05:49:01.990Z,20.2
2022-08-24T05:50:01.592Z,20.2
2022-08-24T05:51:02.148Z,20.1
2022-08-24T05:52:01.720Z,20.1
2022-08-24T05:53:01.296Z,20.1
2022-08-24T05:54:01.870Z,20.1
2022-08-24T05:55:01.461Z,20.1
2022-08-24T05:56:02.030Z,20.1
2022-08-24T05:57:01.601Z,20.1
2022-08-24T05:58:02.171Z,20.1
2022-08-24T05:59:01.746Z,20.1
2022-08-24T06:00:01.338Z,20
2022-08-24T06:01:01.905Z,20
2022-08-24T06:02:01.600Z,20.1
2022-08-24T06:03:02.193Z,20.1
2022-08-24T06:04:01.717Z,20.2
2022-08-24T06:05:01.303Z,20.3
2022-08-24T06:06:01.889Z,20.3
2022-08-24T06:07:01.465Z,20.4
2022-08-24T06:08:02.035Z,20.4
2022-08-24T06:09:01.606Z,20.5
2022-08-24T06:10:14.908Z,20.5
2022-08-24T06:11:01.747Z,20.6
2022-08-24T06:12:01.319Z,20.6
2022-08-24T06:13:01.908Z,20.6
2022-08-24T06:14:01.491Z,20.6
2022-08-24T06:15:02.080Z,20.6
2022-08-24T06:16:20.212Z,20.6
2022-08-24T06:17:02.375Z,20.7
2022-08-24T06:18:02.211Z,20.8
2022-08-24T06:19:01.493Z,20.8
2022-08-24T06:20:02.062Z,20.8
2022-08-24T06:21:01.639Z,20.8
2022-08-24T06:22:02.206Z,20.9
2022-08-24T06:23:01.862Z,20.9
2022-08-24T06:24:01.488Z,20.9
2022-08-24T06:25:02.054Z,20.8
2022-08-24T06:26:01.630Z,20.8
2022-08-24T06:27:02.205Z,20.9
2022-08-24T06:28:01.795Z,20.8
2022-08-24T06:29:01.391Z,20.9
2022-08-24T06:30:01.950Z,20.9
2022-08-24T06:31:01.576Z,21
2022-08-24T06:32:02.204Z,21.1
2022-08-24T06:33:01.766Z,21.1
2022-08-24T06:34:01.356Z,21.1
2022-08-24T06:35:01.918Z,21.2
2022-08-24T06:36:01.397Z,21.3
2022-08-24T06:37:01.993Z,21.3
2022-08-24T06:38:01.789Z,21.4
2022-08-24T06:39:02.152Z,21.5
2022-08-24T06:40:01.821Z,21.5
2022-08-24T06:41:01.317Z,21.6
2022-08-24T06:42:01.909Z,21.7
2022-08-24T06:43:01.484Z,21.7
2022-08-24T06:44:02.059Z,21.8
2022-08-24T06:45:01.679Z,21.8
2022-08-24T06:46:02.245Z,21.9
2022-08-24T06:47:01.903Z,21.9
2022-08-24T06:48:01.466Z,21.9
2022-08-24T06:49:02.036Z,22
2022-08-24T06:50:01.608Z,22
2022-08-24T06:51:02.180Z,22.1
2022-08-24T06:52:01.758Z,22
2022-08-24T06:53:01.352Z,22.1
2022-08-24T06:54:01.923Z,22
2022-08-24T06:55:01.497Z,22.1
2022-08-24T06:56:02.074Z,22
2022-08-24T06:57:01.651Z,22
2022-08-24T06:58:02.239Z,22
2022-08-24T06:59:01.813Z,22
2022-08-24T07:00:01.385Z,22
2022-08-24T07:01:01.960Z,21.9
2022-08-24T07:02:01.574Z,22
2022-08-24T07:03:02.344Z,22
2022-08-24T07:04:01.758Z,22
2022-08-24T07:05:01.347Z,22
2022-08-24T07:06:01.918Z,22
2022-08-24T07:07:01.491Z,22
2022-08-24T07:08:02.067Z,22
2022-08-24T07:09:01.657Z,22
2022-08-24T07:10:02.226Z,22
2022-08-24T07:11:01.801Z,22
2022-08-24T07:12:01.376Z,22
2022-08-24T07:13:01.967Z,22
2022-08-24T07:14:01.571Z,22
2022-08-24T07:15:02.127Z,22
2022-08-24T07:16:01.749Z,22
2022-08-24T07:17:01.288Z,22
2022-08-24T07:18:01.908Z,22.1
2022-08-24T07:19:01.501Z,22.1
2022-08-24T07:20:02.066Z,22.2
2022-08-24T07:21:01.643Z,22.2
2022-08-24T07:22:02.186Z,22.2
2022-08-24T07:23:02.115Z,22.3
2022-08-24T07:24:01.482Z,22.3
2022-08-24T07:25:02.054Z,22.3
2022-08-24T07:26:01.629Z,22.4
2022-08-24T07:27:02.319Z,22.4
2022-08-24T07:28:03.881Z,22.5
2022-08-24T07:29:01.534Z,22.6
2022-08-24T07:30:23.429Z,22.7
2022-08-24T07:31:01.628Z,22.8
2022-08-24T07:32:02.242Z,22.8
2022-08-24T07:33:01.965Z,22.9
2022-08-24T07:34:01.468Z,22.9
2022-08-24T07:35:02.043Z,23
2022-08-24T07:36:01.636Z,23.1
2022-08-24T07:37:02.203Z,23.3
2022-08-24T07:38:02.162Z,23.3
2022-08-24T07:39:01.450Z,23.4
2022-08-24T07:40:02.086Z,23.4
2022-08-24T07:41:20.542Z,23.6
2022-08-24T07:42:13.230Z,23.5
2022-08-24T07:43:02.004Z,23.7
2022-08-24T07:44:01.504Z,23.7
2022-08-24T07:45:02.077Z,23.8
2022-08-24T07:46:01.747Z,23.8
2022-08-24T07:47:15.327Z,23.9
2022-08-24T07:49:10.676Z,24
2022-08-24T07:50:02.187Z,24
2022-08-24T07:51:01.741Z,24
2022-08-24T07:52:01.333Z,24
2022-08-24T07:53:01.964Z,24.1
2022-08-24T07:54:01.551Z,24.2
2022-08-24T07:55:02.129Z,24.2
2022-08-24T07:56:01.790Z,24.2
2022-08-24T07:57:01.383Z,24.2
2022-08-24T07:58:02.107Z,24.1
2022-08-24T07:59:01.612Z,24.1
2022-08-24T08:00:02.185Z,24.2
2022-08-24T08:01:01.724Z,24.1
2022-08-24T08:02:01.296Z,24.3
2022-08-24T08:03:02.060Z,24.3
2022-08-24T08:04:01.516Z,24.2
2022-08-24T08:05:02.307Z,24.3
2022-08-24T08:06:01.741Z,24.3
2022-08-24T08:07:01.323Z,24.3
2022-08-24T08:08:01.991Z,24.2
2022-08-24T08:09:01.559Z,24.4
2022-08-24T08:10:02.138Z,24.4
2022-08-24T08:11:01.729Z,24.5
2022-08-24T08:12:01.299Z,24.5
2022-08-24T08:13:01.930Z,24.5
2022-08-24T08:14:01.505Z,24.5
2022-08-24T08:15:02.079Z,24.6
2022-08-24T08:16:03.095Z,24.6
2022-08-24T08:17:02.208Z,24.7
2022-08-24T08:18:01.781Z,24.6
2022-08-24T08:19:09.731Z,24.7
2022-08-24T08:20:01.907Z,24.7
2022-08-24T08:21:01.483Z,24.8
2022-08-24T08:22:02.058Z,24.9
2022-08-24T08:23:01.636Z,25.1
2022-08-24T08:24:02.224Z,25
2022-08-24T08:25:01.733Z,25.1
2022-08-24T08:26:01.309Z,25
2022-08-24T08:27:01.880Z,25
2022-08-24T08:28:04.412Z,25
2022-08-24T08:29:02.012Z,25
2022-08-24T08:30:01.602Z,25.1
2022-08-24T08:31:02.198Z,25.1
2022-08-24T08:32:01.828Z,25.1
2022-08-24T08:33:01.418Z,25.3
2022-08-24T08:34:01.985Z,25.3
2022-08-24T08:35:02.194Z,25.3
2022-08-24T08:36:02.122Z,25.4
2022-08-24T08:37:01.695Z,25.4
2022-08-24T08:38:02.348Z,25.5
2022-08-24T08:39:01.947Z,25.5
2022-08-24T08:40:01.577Z,25.5
2022-08-24T08:41:02.094Z,25.5
2022-08-24T08:42:01.666Z,25.6
2022-08-24T08:43:02.259Z,25.6
2022-08-24T08:44:01.829Z,25.6
2022-08-24T08:45:01.402Z,25.8
2022-08-24T08:46:02.036Z,25.9
2022-08-24T08:47:01.652Z,25.9
2022-08-24T08:49:01.797Z,25.8
2022-08-24T08:50:01.372Z,25.8
2022-08-24T08:51:01.946Z,25.9
2022-08-24T08:52:01.534Z,25.9
2022-08-24T08:53:02.112Z,26
2022-08-24T08:54:01.686Z,26
2022-08-24T08:55:02.259Z,26
2022-08-24T08:56:01.835Z,26
2022-08-24T08:57:01.412Z,26.1
2022-08-24T08:58:02.046Z,26.3
2022-08-24T08:59:01.626Z,26.3
2022-08-24T09:00:02.220Z,26.3
2022-08-24T09:01:04.655Z,26.3
2022-08-24T09:02:01.351Z,26.3
2022-08-24T09:03:02.921Z,26.3
2022-08-24T09:04:02.222Z,26.4
2022-08-24T09:05:01.882Z,26.3
2022-08-24T09:06:01.502Z,26.4
2022-08-24T09:07:02.076Z,26.4
2022-08-24T09:08:01.676Z,26.4
2022-08-24T09:09:02.233Z,26.4
2022-08-24T09:10:01.807Z,26.5
2022-08-24T09:11:01.381Z,26.5
2022-08-24T09:12:01.954Z,26.6
2022-08-24T09:13:01.544Z,26.6
2022-08-24T09:14:02.108Z,26.5
2022-08-24T09:15:01.682Z,26.6
2022-08-24T09:16:02.257Z,26.6
2022-08-24T09:17:01.876Z,26.6
2022-08-24T09:18:01.485Z,26.6
2022-08-24T09:19:02.055Z,26.7
2022-08-24T09:20:01.638Z,26.8
2022-08-24T09:21:02.209Z,26.8
2022-08-24T09:22:01.796Z,26.9
2022-08-24T09:23:01.388Z,27
2022-08-24T09:24:01.955Z,27.3
2022-08-24T09:25:01.530Z,27.3
2022-08-24T09:26:02.103Z,27.3
2022-08-24T09:27:01.676Z,27.3
2022-08-24T09:28:02.374Z,27.3
2022-08-24T09:29:02.027Z,27.6
2022-08-24T09:30:01.486Z,27.5
2022-08-24T09:31:02.090Z,27.6
2022-08-24T09:32:01.722Z,27.6
2022-08-24T09:33:02.075Z,27.6
2022-08-24T09:34:01.672Z,27.6
2022-08-24T09:35:02.255Z,27.6
2022-08-24T09:36:01.829Z,27.6
2022-08-24T09:37:01.400Z,27.7
2022-08-24T09:38:01.971Z,27.6
2022-08-24T09:39:01.558Z,27.6
2022-08-24T09:40:02.204Z,27.7
2022-08-24T09:41:01.778Z,27.7
2022-08-24T09:42:01.352Z,27.7
2022-08-24T09:43:02.186Z,27.8
2022-08-24T09:44:03.509Z,27.8
2022-08-24T09:45:02.197Z,27.9
2022-08-24T09:46:01.823Z,27.9
2022-08-24T09:47:01.370Z,27.9
2022-08-24T09:48:01.967Z,27.8
2022-08-24T09:49:01.556Z,27.7
2022-08-24T09:50:02.124Z,28
2022-08-24T09:51:01.782Z,27.9
2022-08-24T09:52:01.363Z,28
2022-08-24T09:53:01.953Z,28
2022-08-24T09:54:01.525Z,28.1
2022-08-24T09:55:02.104Z,28.1
2022-08-24T09:56:01.675Z,28.2
2022-08-24T09:57:11.919Z,28.1
2022-08-24T09:58:01.968Z,28.2
2022-08-24T09:59:01.491Z,28.3
2022-08-24T10:00:02.060Z,28.4
2022-08-24T10:01:01.675Z,28.4
2022-08-24T10:02:02.285Z,28.4
2022-08-24T10:03:01.891Z,28.4
2022-08-24T10:04:01.483Z,28.5
2022-08-24T10:05:02.163Z,28.5
2022-08-24T10:06:01.794Z,28.6
2022-08-24T10:07:02.281Z,28.8
2022-08-24T10:08:01.853Z,28.5
2022-08-24T10:09:01.447Z,28.5
2022-08-24T10:10:02.013Z,28.5
2022-08-24T10:11:01.587Z,28.4
2022-08-24T10:12:02.173Z,28.4
2022-08-24T10:13:01.747Z,28.3
2022-08-24T10:14:01.323Z,28.4
2022-08-24T10:15:01.899Z,28.4
2022-08-24T10:16:01.474Z,28.4
2022-08-24T10:17:02.061Z,28.2
2022-08-24T10:18:01.777Z,28.3
2022-08-24T10:19:02.220Z,28.4
2022-08-24T10:20:01.792Z,28.4
2022-08-24T10:21:01.364Z,28.4
2022-08-24T10:22:01.955Z,28.4
2022-08-24T10:23:01.541Z,28.4
2022-08-24T10:24:02.112Z,28.5
2022-08-24T10:25:01.685Z,28.5
2022-08-24T10:26:02.258Z,28.5
2022-08-24T10:27:01.848Z,28.6
2022-08-24T10:28:01.442Z,28.9
2022-08-24T10:29:02.007Z,28.7
2022-08-24T10:30:01.598Z,28.9
2022-08-24T10:31:02.168Z,28.9
2022-08-24T10:32:01.787Z,28.8
2022-08-24T10:33:01.344Z,29.1
2022-08-24T10:34:01.914Z,29.4
2022-08-24T10:35:01.490Z,29.3
2022-08-24T10:36:02.081Z,29
2022-08-24T10:37:01.652Z,29.1
2022-08-24T10:38:02.389Z,28.9
2022-08-24T10:39:01.901Z,28.9
2022-08-24T10:40:02.218Z,28.9
2022-08-24T10:41:02.004Z,29.1
2022-08-24T10:42:01.546Z,29.2
2022-08-24T10:43:02.308Z,29.2
2022-08-24T10:44:01.894Z,29.3
2022-08-24T10:45:01.468Z,29.2
2022-08-24T10:46:02.122Z,29.1
2022-08-24T10:47:01.699Z,29.2
2022-08-24T10:48:01.878Z,29.1
2022-08-24T10:49:02.150Z,29.3
2022-08-24T10:50:00.812Z,29.6
2022-08-24T10:51:01.384Z,29.6
2022-08-24T10:52:01.679Z,29.6
2022-08-24T10:53:01.251Z,29.7
2022-08-24T10:54:00.837Z,29.7
2022-08-24T10:55:01.425Z,29.8
2022-08-24T10:56:00.995Z,29.9
2022-08-24T10:57:01.568Z,29.8
2022-08-24T10:58:01.144Z,29.8
2022-08-24T10:59:01.716Z,29.7
2022-08-24T11:00:01.306Z,29.9
2022-08-24T11:01:00.891Z,29.9
2022-08-24T11:02:01.471Z,29.7
2022-08-24T11:03:01.113Z,29.6
2022-08-24T11:04:01.686Z,29.6
2022-08-24T11:05:01.271Z,29.6
2022-08-24T11:06:00.845Z,29.7
2022-08-24T11:07:01.419Z,29.6
2022-08-24T11:08:01.072Z,29.7
2022-08-24T11:09:01.637Z,29.6
2022-08-24T11:10:01.224Z,29.6
2022-08-24T11:11:01.793Z,29.7
2022-08-24T11:12:01.379Z,29.5
2022-08-24T11:13:00.951Z,29.5
2022-08-24T11:14:01.527Z,29.4
2022-08-24T11:15:01.105Z,29.5
2022-08-24T11:16:01.771Z,29.7
2022-08-24T11:17:01.340Z,29.8
2022-08-24T11:18:00.915Z,29.8
2022-08-24T11:19:01.489Z,29.9
2022-08-24T11:20:01.062Z,30.1
2022-08-24T11:21:01.649Z,30.1
2022-08-24T11:22:01.021Z,30
2022-08-24T11:23:01.628Z,29.9
2022-08-24T11:24:01.200Z,29.7
2022-08-24T11:25:01.774Z,29.7
2022-08-24T11:26:01.345Z,29.7
2022-08-24T11:27:00.919Z,29.6
2022-08-24T11:28:01.506Z,29.7
2022-08-24T11:29:01.079Z,29.8
2022-08-24T11:30:01.648Z,29.8
2022-08-24T11:31:01.241Z,29.9
2022-08-24T11:32:01.805Z,30.1
2022-08-24T11:33:01.390Z,30
2022-08-24T11:34:00.984Z,30
2022-08-24T11:35:01.549Z,30.1
2022-08-24T11:36:01.131Z,30.3
2022-08-24T11:37:01.749Z,30.5
2022-08-24T11:38:01.365Z,30.5
2022-08-24T11:39:00.955Z,30.5
2022-08-24T11:40:01.629Z,30.3
2022-08-24T11:41:01.174Z,30.4
2022-08-24T11:42:01.747Z,30.5
2022-08-24T11:43:05.671Z,30.4
2022-08-24T11:44:00.872Z,30.4
2022-08-24T11:45:01.447Z,30.6
2022-08-24T11:46:01.022Z,30.7
2022-08-24T11:47:01.618Z,30.7
2022-08-24T11:48:01.214Z,30.8
2022-08-24T11:49:01.792Z,30.8
2022-08-24T11:50:01.365Z,30.7
2022-08-24T11:51:00.968Z,30.6
2022-08-24T11:52:01.526Z,30.6
2022-08-24T11:53:01.099Z,30.4
2022-08-24T11:54:01.689Z,30.3
2022-08-24T11:55:01.179Z,30.4
2022-08-24T11:56:01.718Z,30.4
2022-08-24T11:57:01.288Z,30.4
2022-08-24T11:58:01.216Z,30.3
2022-08-24T11:59:01.765Z,30.1
2022-08-24T12:00:01.355Z,30.1
2022-08-24T12:01:00.942Z,30.1
2022-08-24T12:02:01.655Z,30.1
2022-08-24T12:03:01.291Z,30.3
2022-08-24T12:04:01.761Z,30.5
2022-08-24T12:05:01.511Z,30.6
2022-08-24T12:06:01.011Z,30.8
2022-08-24T12:07:01.587Z,30.6
2022-08-24T12:08:01.170Z,30.1
2022-08-24T12:09:01.748Z,30.3
2022-08-24T12:10:01.303Z,30.3
2022-08-24T12:11:00.895Z,30.3
2022-08-24T12:12:01.464Z,30.3
2022-08-24T12:13:01.041Z,30.3
2022-08-24T12:14:01.617Z,30.3
2022-08-24T12:15:01.210Z,30.5
2022-08-24T12:16:01.855Z,30.5
2022-08-24T12:17:01.476Z,30.4
2022-08-24T12:18:01.025Z,30.4
2022-08-24T12:19:01.599Z,30.6
2022-08-24T12:20:01.193Z,30.5
2022-08-24T12:21:01.755Z,30.5
2022-08-24T12:22:01.331Z,30.3
2022-08-24T12:23:00.911Z,30.5
2022-08-24T12:24:01.484Z,30.6
2022-08-24T12:25:01.080Z,30.8
2022-08-24T12:26:01.650Z,30.8
2022-08-24T12:27:01.232Z,30.8
2022-08-24T12:28:01.804Z,30.8
2022-08-24T12:29:01.382Z,30.9
2022-08-24T12:30:00.971Z,30.9
2022-08-24T12:31:01.568Z,30.9
2022-08-24T12:32:01.197Z,31
2022-08-24T12:33:01.770Z,30.9
2022-08-24T12:34:01.343Z,30.9
2022-08-24T12:35:00.918Z,31
2022-08-24T12:36:01.505Z,31
2022-08-24T12:37:01.094Z,31
2022-08-24T12:38:01.663Z,31.1
2022-08-24T12:39:01.286Z,31.4
2022-08-24T12:40:00.896Z,31.5
2022-08-24T12:41:02.344Z,31.3
2022-08-24T12:42:01.000Z,31.1
2022-08-24T12:43:01.583Z,31
2022-08-24T12:44:01.158Z,31
2022-08-24T12:45:01.737Z,31.1
2022-08-24T12:46:01.323Z,31.1
2022-08-24T12:47:00.904Z,31.3
2022-08-24T12:48:01.470Z,31.5
2022-08-24T12:49:01.047Z,31.4
2022-08-24T12:50:01.663Z,31.5
2022-08-24T12:51:01.241Z,31.5
2022-08-24T12:52:01.835Z,31.3
2022-08-24T12:53:01.437Z,31.4
2022-08-24T12:54:01.735Z,31.4
2022-08-24T12:55:01.308Z,31.3
2022-08-24T12:56:00.889Z,31.4
2022-08-24T12:57:02.492Z,31.3
2022-08-24T12:58:01.224Z,31.2
2022-08-24T12:59:01.867Z,31.3
2022-08-24T13:00:01.352Z,31.3
2022-08-24T13:01:05.362Z,31.2
2022-08-24T13:02:01.550Z,31.1
2022-08-24T13:03:01.166Z,31.2
2022-08-24T13:04:01.758Z,31.1
2022-08-24T13:05:01.403Z,31
2022-08-24T13:06:00.976Z,30.8
2022-08-24T13:07:01.558Z,30.8
2022-08-24T13:08:01.129Z,30.8
2022-08-24T13:09:01.717Z,30.9
2022-08-24T13:10:01.274Z,31
2022-08-24T13:11:01.848Z,31.1
2022-08-24T13:12:01.420Z,31.1
2022-08-24T13:13:00.995Z,31.1
2022-08-24T13:14:01.595Z,31.2
2022-08-24T13:15:01.198Z,31.1
2022-08-24T13:16:02.016Z,31.1
2022-08-24T13:17:01.835Z,31.2
2022-08-24T13:18:03.153Z,31.2
2022-08-24T13:19:01.545Z,31.2
2022-08-24T13:20:01.123Z,31.1
2022-08-24T13:21:01.713Z,30.9
2022-08-24T13:22:01.288Z,31
2022-08-24T13:23:01.865Z,31.1
2022-08-24T13:24:01.442Z,31.1
2022-08-24T13:25:01.015Z,31.2
2022-08-24T13:26:01.605Z,31.3